createdAt,value
2023-02-19T00:02:15.672Z,96905.81
2023-02-19T00:04:42.544Z,96894.00
2023-02-19T00:07:09.411Z,96894.81
2023-02-19T00:09:36.276Z,96902.97
2023-02-19T00:12:03.155Z,96899.72
2023-02-19T00:14:30.041Z,96895.81
2023-02-19T00:16:56.846Z,96896.25
2023-02-19T00:19:24.288Z,96897.06
2023-02-19T00:21:52.846Z,96890.53
2023-02-19T00:24:20.506Z,96884.47
2023-02-19T00:26:48.213Z,96885.06
2023-02-19T00:29:19.873Z,96884.66
2023-02-19T00:31:47.383Z,96881.00
2023-02-19T00:34:14.953Z,96879.00
2023-02-19T00:36:42.999Z,96881.38
2023-02-19T00:39:15.571Z,96877.75
2023-02-19T00:41:43.198Z,96872.03
2023-02-19T00:44:12.104Z,96864.34
2023-02-19T00:46:45.999Z,96861.50
2023-02-19T00:49:22.949Z,96860.28
2023-02-19T00:51:52.347Z,96853.78
2023-02-19T00:54:22.356Z,96856.63
2023-02-19T00:56:49.637Z,96855.41
2023-02-19T00:59:16.738Z,96867.19
2023-02-19T01:01:44.991Z,96862.53
2023-02-19T01:04:12.080Z,96863.94
2023-02-19T01:06:38.875Z,96861.50
2023-02-19T01:09:07.775Z,96864.97
2023-02-19T01:11:35.309Z,96852.75
2023-02-19T01:14:03.437Z,96844.41
2023-02-19T01:16:31.014Z,96845.66
2023-02-19T01:19:00.045Z,96852.16
2023-02-19T01:21:29.627Z,96857.44
2023-02-19T01:23:58.861Z,96844.84
2023-02-19T01:26:30.125Z,96845.44
2023-02-19T01:28:58.489Z,96839.56
2023-02-19T01:31:26.228Z,96847.69
2023-02-19T01:34:00.496Z,96835.50
2023-02-19T01:36:29.338Z,96831.03
2023-02-19T01:38:56.279Z,96822.47
2023-02-19T01:41:25.740Z,96823.91
2023-02-19T01:44:27.567Z,96816.38
2023-02-19T01:46:57.530Z,96822.47
2023-02-19T01:49:53.074Z,96823.47
2023-02-19T01:52:32.687Z,96809.06
2023-02-19T01:55:01.816Z,96811.09
2023-02-19T01:57:34.862Z,96805.41
2023-02-19T02:00:12.930Z,96800.13
2023-02-19T02:02:42.572Z,96804.00
2023-02-19T02:05:20.168Z,96792.03
2023-02-19T02:08:05.452Z,96786.72
2023-02-19T02:10:32.251Z,96787.56
2023-02-19T02:12:59.370Z,96790.81
2023-02-19T02:15:55.947Z,96786.28
2023-02-19T02:18:54.481Z,96788.38
2023-02-19T02:21:49.260Z,96785.94
2023-02-19T02:24:53.021Z,96783.91
2023-02-19T02:27:43.263Z,96780.22
2023-02-19T02:30:31.596Z,96766.44
2023-02-19T02:33:22.049Z,96779.22
2023-02-19T02:35:56.655Z,96776.56
2023-02-19T02:38:29.340Z,96765.00
2023-02-19T02:40:56.947Z,96767.59
2023-02-19T02:43:24.194Z,96762.97
2023-02-19T02:45:51.138Z,96771.47
2023-02-19T02:48:32.558Z,96766.44
2023-02-19T02:51:23.450Z,96765.19
2023-02-19T02:54:12.340Z,96754.84
2023-02-19T02:56:41.330Z,96751.59
2023-02-19T02:59:11.409Z,96743.69
2023-02-19T03:02:02.361Z,96733.13
2023-02-19T03:04:37.756Z,96722.97
2023-02-19T03:07:08.856Z,96729.84
2023-02-19T03:09:43.155Z,96734.31
2023-02-19T03:12:34.314Z,96740.00
2023-02-19T03:15:25.997Z,96735.09
2023-02-19T03:18:17.748Z,96719.81
2023-02-19T03:20:50.329Z,96718.84
2023-02-19T03:23:19.445Z,96721.69
2023-02-19T03:26:05.655Z,96705.91
2023-02-19T03:28:56.889Z,96718.28
2023-02-19T03:31:27.058Z,96725.22
2023-02-19T03:34:00.610Z,96715.28
2023-02-19T03:36:36.982Z,96707.13
2023-02-19T03:39:07.723Z,96717.69
2023-02-19T03:41:48.696Z,96710.00
2023-02-19T03:44:40.384Z,96710.97
2023-02-19T03:47:39.968Z,96704.72
2023-02-19T03:50:30.184Z,96712.78
2023-02-19T03:53:28.458Z,96704.66
2023-02-19T03:56:18.339Z,96724.53
2023-02-19T03:59:05.823Z,96716.03
2023-02-19T04:01:42.671Z,96719.41
2023-02-19T04:04:34.134Z,96705.06
2023-02-19T04:07:01.146Z,96704.09
2023-02-19T04:09:37.043Z,96709.91
2023-02-19T04:12:05.334Z,96707.94
2023-02-19T04:14:45.574Z,96715.22
2023-02-19T04:17:29.940Z,96715.59
2023-02-19T04:19:58.908Z,96712.34
2023-02-19T04:22:26.572Z,96714.41
2023-02-19T04:24:55.555Z,96706.44
2023-02-19T04:27:22.434Z,96710.75
2023-02-19T04:29:49.315Z,96701.84
2023-02-19T04:32:16.138Z,96715.59
2023-02-19T04:34:42.929Z,96711.56
2023-02-19T04:37:09.916Z,96714.38
2023-02-19T04:39:36.775Z,96723.97
2023-02-19T04:42:04.118Z,96726.38
2023-02-19T04:44:30.915Z,96717.19
2023-02-19T04:46:57.733Z,96724.03
2023-02-19T04:49:24.563Z,96725.53
2023-02-19T04:51:51.325Z,96721.25
2023-02-19T04:54:18.130Z,96741.56
2023-02-19T04:56:44.924Z,96745.47
2023-02-19T04:59:12.549Z,96738.59
2023-02-19T05:01:39.387Z,96730.38
2023-02-19T05:04:06.197Z,96727.38
2023-02-19T05:06:33.130Z,96732.50
2023-02-19T05:08:59.912Z,96739.47
2023-02-19T05:11:27.047Z,96730.16
2023-02-19T05:13:56.017Z,96741.47
2023-02-19T05:16:22.951Z,96735.63
2023-02-19T05:18:49.740Z,96745.91
2023-02-19T05:21:16.992Z,96755.28
2023-02-19T05:23:44.152Z,96757.88
2023-02-19T05:26:22.483Z,96751.31
2023-02-19T05:28:53.866Z,96767.25
2023-02-19T05:31:21.515Z,96760.09
2023-02-19T05:33:51.217Z,96755.47
2023-02-19T05:36:21.344Z,96762.16
2023-02-19T05:38:52.641Z,96750.63
2023-02-19T05:41:23.421Z,96768.88
2023-02-19T05:43:50.554Z,96772.00
2023-02-19T05:46:21.371Z,96765.22
2023-02-19T05:48:49.559Z,96769.19
2023-02-19T05:51:20.236Z,96763.69
2023-02-19T05:53:47.233Z,96760.88
2023-02-19T05:56:30.998Z,96759.34
2023-02-19T05:58:58.397Z,96760.00
2023-02-19T06:01:28.398Z,96774.72
2023-02-19T06:03:57.490Z,96763.69
2023-02-19T06:06:25.828Z,96764.69
2023-02-19T06:08:53.213Z,96771.47
2023-02-19T06:11:20.478Z,96773.38
2023-02-19T06:13:47.542Z,96775.78
2023-02-19T06:16:14.410Z,96783.84
2023-02-19T06:18:41.300Z,96793.19
2023-02-19T06:21:11.154Z,96791.97
2023-02-19T06:23:39.162Z,96794.25
2023-02-19T06:26:12.316Z,96791.00
2023-02-19T06:28:40.472Z,96797.69
2023-02-19T06:31:09.344Z,96793.94
2023-02-19T06:33:40.432Z,96793.41
2023-02-19T06:36:11.949Z,96803.66
2023-02-19T06:38:38.891Z,96813.03
2023-02-19T06:41:07.269Z,96811.94
2023-02-19T06:43:34.789Z,96819.78
2023-02-19T06:46:04.530Z,96815.03
2023-02-19T06:48:32.548Z,96838.00
2023-02-19T06:50:59.880Z,96826.66
2023-02-19T06:53:27.511Z,96834.75
2023-02-19T06:56:04.719Z,96838.63
2023-02-19T06:58:32.634Z,96840.56
2023-02-19T07:00:59.899Z,96840.69
2023-02-19T07:03:26.842Z,96835.63
2023-02-19T07:05:53.966Z,96849.88
2023-02-19T07:08:20.876Z,96851.78
2023-02-19T07:10:56.445Z,96853.69
2023-02-19T07:13:25.278Z,96865.56
2023-02-19T07:15:52.684Z,96865.81
2023-02-19T07:18:19.532Z,96875.03
2023-02-19T07:20:46.460Z,96877.13
2023-02-19T07:23:13.235Z,96879.41
2023-02-19T07:25:40.175Z,96876.81
2023-02-19T07:28:07.951Z,96882.50
2023-02-19T07:30:34.815Z,96889.31
2023-02-19T07:33:01.800Z,96906.88
2023-02-19T07:35:28.871Z,96904.75
2023-02-19T07:37:55.668Z,96914.19
2023-02-19T07:40:22.430Z,96914.53
2023-02-19T07:42:49.273Z,96919.06
2023-02-19T07:45:16.169Z,96923.38
2023-02-19T07:47:43.535Z,96931.44
2023-02-19T07:50:12.376Z,96933.88
2023-02-19T07:52:40.533Z,96942.03
2023-02-19T07:55:07.528Z,96950.41
2023-02-19T07:57:34.308Z,96953.88
2023-02-19T08:00:01.275Z,96967.19
2023-02-19T08:02:46.435Z,96957.94
2023-02-19T08:05:14.020Z,96973.09
2023-02-19T08:07:41.005Z,96979.97
2023-02-19T08:10:26.665Z,96965.81
2023-02-19T08:13:17.109Z,96970.34
2023-02-19T08:15:47.850Z,96951.56
2023-02-19T08:18:16.361Z,96973.81
2023-02-19T08:20:43.877Z,96973.19
2023-02-19T08:23:12.165Z,96993.28
2023-02-19T08:25:40.167Z,96986.63
2023-02-19T08:28:09.643Z,96961.66
2023-02-19T08:30:38.348Z,96967.00
2023-02-19T08:33:07.703Z,96972.69
2023-02-19T08:35:36.480Z,96981.06
2023-02-19T08:38:05.220Z,96975.19
2023-02-19T08:40:33.319Z,96989.72
2023-02-19T08:43:13.029Z,96996.59
2023-02-19T08:45:43.227Z,97012.81
2023-02-19T08:48:11.859Z,97011.84
2023-02-19T08:50:39.193Z,97003.25
2023-02-19T08:53:07.089Z,97003.81
2023-02-19T08:55:34.515Z,96992.28
2023-02-19T08:58:01.562Z,97002.66
2023-02-19T09:00:28.602Z,97002.06
2023-02-19T09:02:57.927Z,97009.28
2023-02-19T09:05:24.700Z,97006.19
2023-02-19T09:07:51.466Z,97005.03
2023-02-19T09:10:18.415Z,97007.94
2023-02-19T09:12:45.213Z,97011.00
2023-02-19T09:15:11.975Z,96996.69
2023-02-19T09:17:38.737Z,96995.50
2023-02-19T09:20:05.865Z,96992.06
2023-02-19T09:22:32.978Z,96989.38
2023-02-19T09:24:59.786Z,97007.75
2023-02-19T09:27:26.611Z,97008.97
2023-02-19T09:29:54.641Z,97004.41
2023-02-19T09:32:21.558Z,96992.75
2023-02-19T09:34:49.584Z,96999.63
2023-02-19T09:37:16.346Z,97002.47
2023-02-19T09:39:43.175Z,97014.47
2023-02-19T09:42:16.156Z,97014.78
2023-02-19T09:44:48.309Z,97015.72
2023-02-19T09:47:22.973Z,97025.38
2023-02-19T09:49:54.218Z,97016.47
2023-02-19T09:52:59.537Z,97018.88
2023-02-19T09:55:34.553Z,97022.94
2023-02-19T09:58:14.937Z,97023.13
2023-02-19T10:00:41.704Z,97016.22
2023-02-19T10:03:17.433Z,97032.94
2023-02-19T10:05:44.268Z,97025.28
2023-02-19T10:08:18.938Z,97026.81
2023-02-19T10:10:45.805Z,97029.50
2023-02-19T10:13:30.649Z,97031.53
2023-02-19T10:16:01.861Z,97028.66
2023-02-19T10:18:42.249Z,97028.34
2023-02-19T10:21:17.715Z,97038.88
2023-02-19T10:23:45.089Z,97035.75
2023-02-19T10:26:11.989Z,97039.94
2023-02-19T10:28:38.785Z,97056.28
2023-02-19T10:31:20.926Z,97046.56
2023-02-19T10:33:54.945Z,97061.63
2023-02-19T10:36:41.259Z,97042.66
2023-02-19T10:39:23.078Z,97052.06
2023-02-19T10:41:51.461Z,97054.91
2023-02-19T10:44:27.385Z,97052.22
2023-02-19T10:46:57.701Z,97052.06
2023-02-19T10:49:41.961Z,97047.28
2023-02-19T10:52:27.358Z,97043.69
2023-02-19T10:55:14.609Z,97050.22
2023-02-19T10:57:41.758Z,97049.38
2023-02-19T11:00:26.761Z,97037.63
2023-02-19T11:03:21.354Z,97026.41
2023-02-19T11:06:02.543Z,97037.88
2023-02-19T11:08:30.822Z,97028.66
2023-02-19T11:10:58.444Z,97017.06
2023-02-19T11:13:32.444Z,97014.41
2023-02-19T11:16:00.393Z,97018.91
2023-02-19T11:18:31.416Z,97029.84
2023-02-19T11:21:01.779Z,97042.75
2023-02-19T11:23:45.290Z,97043.19
2023-02-19T11:26:23.222Z,97039.97
2023-02-19T11:29:19.676Z,97051.00
2023-02-19T11:31:46.669Z,97052.59
2023-02-19T11:34:21.307Z,97055.66
2023-02-19T11:37:15.002Z,97073.03
2023-02-19T11:39:45.557Z,97068.16
2023-02-19T11:42:49.235Z,97064.91
2023-02-19T11:46:07.079Z,97067.69
2023-02-19T11:49:15.086Z,97058.41
2023-02-19T11:52:01.529Z,97050.84
2023-02-19T11:54:51.974Z,97054.31
2023-02-19T11:57:39.274Z,97059.16
2023-02-19T12:00:30.913Z,97059.13
2023-02-19T12:03:44.140Z,97043.00
2023-02-19T12:06:32.522Z,97044.84
2023-02-19T12:09:33.074Z,97054.50
2023-02-19T12:12:37.979Z,97041.28
2023-02-19T12:15:29.523Z,97049.13
2023-02-19T12:18:23.800Z,97028.66
2023-02-19T12:21:40.959Z,97042.91
2023-02-19T12:24:44.767Z,97057.06
2023-02-19T12:27:37.222Z,97048.88
2023-02-19T12:30:29.539Z,97062.56
2023-02-19T12:33:27.296Z,97060.41
2023-02-19T12:36:00.756Z,97055.94
2023-02-19T12:38:45.558Z,97064.38
2023-02-19T12:41:42.301Z,97072.38
2023-02-19T12:44:44.716Z,97068.56
2023-02-19T12:47:24.247Z,97080.81
2023-02-19T12:50:21.192Z,97079.81
2023-02-19T12:52:54.243Z,97074.56
2023-02-19T12:55:33.770Z,97070.06
2023-02-19T12:58:05.866Z,97078.03
2023-02-19T13:00:50.369Z,97088.59
2023-02-19T13:03:27.068Z,97082.84
2023-02-19T13:06:21.293Z,97074.44
2023-02-19T13:09:08.014Z,97085.66
2023-02-19T13:11:44.487Z,97068.22
2023-02-19T13:14:26.255Z,97081.03
2023-02-19T13:17:01.730Z,97075.44
2023-02-19T13:19:30.968Z,97071.41
2023-02-19T13:22:40.930Z,97068.16
2023-02-19T13:25:10.210Z,97074.28
2023-02-19T13:27:52.109Z,97072.97
2023-02-19T13:30:57.519Z,97073.84
2023-02-19T13:34:25.281Z,97067.75
2023-02-19T13:36:53.409Z,97057.97
2023-02-19T13:39:21.898Z,97056.34
2023-02-19T13:41:58.950Z,97071.00
2023-02-19T13:44:32.522Z,97075.88
2023-02-19T13:46:59.506Z,97068.97
2023-02-19T13:49:41.580Z,97067.72
2023-02-19T13:52:29.486Z,97070.56
2023-02-19T13:55:46.560Z,97062.22
2023-02-19T13:58:42.489Z,97062.84
2023-02-19T14:01:11.570Z,97064.41
2023-02-19T14:03:56.548Z,97072.28
2023-02-19T14:06:23.365Z,97070.88
2023-02-19T14:09:00.403Z,97079.63
2023-02-19T14:11:42.346Z,97079.66
2023-02-19T14:14:24.902Z,97068.81
2023-02-19T14:17:01.141Z,97063.78
2023-02-19T14:19:48.751Z,97073.28
2023-02-19T14:22:53.170Z,97080.66
2023-02-19T14:25:34.891Z,97078.47
2023-02-19T14:28:09.958Z,97081.59
2023-02-19T14:30:58.881Z,97074.25
2023-02-19T14:33:40.233Z,97081.38
2023-02-19T14:36:50.327Z,97073.00
2023-02-19T14:39:19.284Z,97082.78
2023-02-19T14:41:57.638Z,97080.78
2023-02-19T14:44:30.448Z,97080.78
2023-02-19T14:47:07.030Z,97096.53
2023-02-19T14:49:46.814Z,97105.31
2023-02-19T14:52:17.809Z,97115.03
2023-02-19T14:54:59.878Z,97134.59
2023-02-19T14:57:45.362Z,97150.94
2023-02-19T15:00:37.529Z,97136.63
2023-02-19T15:03:05.682Z,97134.47
2023-02-19T15:05:38.634Z,97133.69
2023-02-19T15:08:16.432Z,97146.19
2023-02-19T15:10:44.399Z,97138.56
2023-02-19T15:13:17.372Z,97139.06
2023-02-19T15:15:46.189Z,97140.19
2023-02-19T15:18:24.208Z,97142.53
2023-02-19T15:20:59.130Z,97136.03
2023-02-19T15:23:30.337Z,97147.41
2023-02-19T15:25:57.718Z,97137.34
2023-02-19T15:28:24.904Z,97138.09
2023-02-19T15:31:15.886Z,97142.34
2023-02-19T15:33:50.918Z,97140.63
2023-02-19T15:36:32.199Z,97142.84
2023-02-19T15:39:02.652Z,97144.19
2023-02-19T15:41:34.529Z,97150.16
2023-02-19T15:44:30.368Z,97144.69
2023-02-19T15:47:02.201Z,97147.09
2023-02-19T15:49:42.343Z,97147.81
2023-02-19T15:52:26.733Z,97153.88
2023-02-19T15:55:48.100Z,97147.59
2023-02-19T15:58:38.230Z,97150.53
2023-02-19T16:01:13.105Z,97147.75
2023-02-19T16:03:40.658Z,97154.84
2023-02-19T16:06:16.537Z,97146.94
2023-02-19T16:08:47.054Z,97148.22
2023-02-19T16:11:22.782Z,97148.28
2023-02-19T16:13:51.130Z,97164.53
2023-02-19T16:16:35.037Z,97169.50
2023-02-19T16:19:02.270Z,97172.63
2023-02-19T16:21:29.349Z,97176.56
2023-02-19T16:24:14.700Z,97182.81
2023-02-19T16:26:43.568Z,97188.78
2023-02-19T16:29:22.080Z,97179.59
2023-02-19T16:32:16.498Z,97181.00
2023-02-19T16:34:48.067Z,97179.41
2023-02-19T16:37:35.062Z,97188.25
2023-02-19T16:40:07.752Z,97183.56
2023-02-19T16:42:55.116Z,97195.09
2023-02-19T16:45:21.926Z,97203.00
2023-02-19T16:47:50.976Z,97206.53
2023-02-19T16:50:24.453Z,97200.16
2023-02-19T16:53:03.085Z,97207.19
2023-02-19T16:55:32.588Z,97198.63
2023-02-19T16:57:59.461Z,97218.63
2023-02-19T17:00:29.877Z,97221.09
2023-02-19T17:03:09.057Z,97221.69
2023-02-19T17:05:37.487Z,97234.28
2023-02-19T17:08:38.539Z,97231.44
2023-02-19T17:11:12.011Z,97235.00
2023-02-19T17:13:39.425Z,97237.97
2023-02-19T17:16:06.817Z,97240.56
2023-02-19T17:18:33.751Z,97242.53
2023-02-19T17:21:17.856Z,97249.28
2023-02-19T17:23:45.066Z,97251.44
2023-02-19T17:26:21.590Z,97265.25
2023-02-19T17:28:48.989Z,97271.13
2023-02-19T17:31:16.743Z,97258.44
2023-02-19T17:33:44.716Z,97262.72
2023-02-19T17:36:27.814Z,97265.44
2023-02-19T17:38:54.845Z,97260.78
2023-02-19T17:41:21.735Z,97271.53
2023-02-19T17:43:50.443Z,97281.69
2023-02-19T17:46:20.471Z,97292.03
2023-02-19T17:48:47.349Z,97297.78
2023-02-19T17:51:14.747Z,97300.16
2023-02-19T17:53:42.327Z,97306.28
2023-02-19T17:56:09.366Z,97312.09
2023-02-19T17:58:36.165Z,97318.03
2023-02-19T18:01:03.007Z,97315.56
2023-02-19T18:03:30.055Z,97328.47
2023-02-19T18:05:56.956Z,97335.25
2023-02-19T18:08:23.720Z,97323.22
2023-02-19T18:10:50.595Z,97325.84
2023-02-19T18:13:17.362Z,97329.75
2023-02-19T18:15:44.878Z,97333.94
2023-02-19T18:18:12.267Z,97351.31
2023-02-19T18:20:39.104Z,97356.91
2023-02-19T18:23:06.056Z,97360.13
2023-02-19T18:25:32.842Z,97362.47
2023-02-19T18:27:59.747Z,97370.09
2023-02-19T18:30:28.513Z,97363.47
2023-02-19T18:32:55.543Z,97360.63
2023-02-19T18:35:22.360Z,97368.84
2023-02-19T18:37:53.442Z,97373.91
2023-02-19T18:40:22.274Z,97373.00
2023-02-19T18:42:49.221Z,97375.09
2023-02-19T18:45:16.185Z,97372.09
2023-02-19T18:47:46.428Z,97377.47
2023-02-19T18:50:13.412Z,97374.94
2023-02-19T18:52:40.233Z,97386.09
2023-02-19T18:55:07.987Z,97383.72
2023-02-19T18:57:34.761Z,97382.16
2023-02-19T19:00:01.528Z,97389.28
2023-02-19T19:02:33.743Z,97395.16
2023-02-19T19:05:06.815Z,97398.38
2023-02-19T19:07:33.621Z,97393.34
2023-02-19T19:10:00.381Z,97391.69
2023-02-19T19:12:27.238Z,97393.69
2023-02-19T19:14:54.645Z,97395.31
2023-02-19T19:17:21.472Z,97389.09
2023-02-19T19:19:48.262Z,97390.41
2023-02-19T19:22:16.509Z,97402.81
2023-02-19T19:24:43.338Z,97394.03
2023-02-19T19:27:10.308Z,97394.81
2023-02-19T19:29:37.256Z,97402.16
2023-02-19T19:32:08.212Z,97394.75
2023-02-19T19:34:35.397Z,97395.22
2023-02-19T19:37:02.206Z,97394.03
2023-02-19T19:39:28.953Z,97384.91
2023-02-19T19:41:56.898Z,97388.25
2023-02-19T19:44:24.093Z,97390.28
2023-02-19T19:46:50.952Z,97378.47
2023-02-19T19:49:21.845Z,97380.81
2023-02-19T19:51:49.013Z,97381.63
2023-02-19T19:54:15.862Z,97375.22
2023-02-19T19:56:45.435Z,97387.28
2023-02-19T19:59:16.741Z,97384.22
2023-02-19T20:01:51.890Z,97389.91
2023-02-19T20:04:21.895Z,97401.34
2023-02-19T20:06:48.998Z,97396.56
2023-02-19T20:09:17.405Z,97396.38
2023-02-19T20:11:50.350Z,97397.63
2023-02-19T20:14:19.758Z,97402.25
2023-02-19T20:16:47.529Z,97395.94
2023-02-19T20:19:18.540Z,97396.50
2023-02-19T20:21:50.980Z,97411.97
2023-02-19T20:24:24.073Z,97406.97
2023-02-19T20:26:53.603Z,97408.81
2023-02-19T20:29:20.830Z,97407.63
2023-02-19T20:31:49.925Z,97410.38
2023-02-19T20:34:17.499Z,97404.94
2023-02-19T20:36:46.734Z,97401.50
2023-02-19T20:39:15.681Z,97400.25
2023-02-19T20:41:50.909Z,97404.13
2023-02-19T20:44:18.527Z,97405.41
2023-02-19T20:46:48.601Z,97400.13
2023-02-19T20:49:18.163Z,97406.69
2023-02-19T20:51:51.776Z,97404.13
2023-02-19T20:54:21.016Z,97408.94
2023-02-19T20:56:50.569Z,97415.09
2023-02-19T20:59:18.672Z,97414.59
2023-02-19T21:01:45.660Z,97411.97
2023-02-19T21:04:13.331Z,97413.44
2023-02-19T21:06:40.330Z,97410.09
2023-02-19T21:09:07.979Z,97408.81
2023-02-19T21:11:34.835Z,97412.66
2023-02-19T21:14:01.678Z,97416.72
2023-02-19T21:16:31.945Z,97422.84
2023-02-19T21:18:59.603Z,97425.47
2023-02-19T21:21:26.961Z,97412.91
2023-02-19T21:23:57.180Z,97421.72
2023-02-19T21:26:25.220Z,97425.06
2023-02-19T21:28:52.910Z,97417.50
2023-02-19T21:31:25.209Z,97413.72
2023-02-19T21:33:52.256Z,97411.56
2023-02-19T21:36:19.042Z,97408.03
2023-02-19T21:38:46.510Z,97414.78
2023-02-19T21:41:13.283Z,97412.56
2023-02-19T21:43:40.086Z,97408.38
2023-02-19T21:46:06.935Z,97413.44
2023-02-19T21:48:33.800Z,97415.81
2023-02-19T21:51:00.758Z,97408.59
2023-02-19T21:53:27.546Z,97407.63
2023-02-19T21:56:10.650Z,97409.28
2023-02-19T21:58:37.500Z,97405.06
2023-02-19T22:01:04.461Z,97405.75
2023-02-19T22:03:31.343Z,97414.13
2023-02-19T22:06:02.171Z,97415.81
2023-02-19T22:08:28.959Z,97415.19
2023-02-19T22:10:55.786Z,97415.91
2023-02-19T22:13:22.632Z,97411.00
2023-02-19T22:15:49.484Z,97407.44
2023-02-19T22:18:16.262Z,97414.03
2023-02-19T22:20:43.064Z,97412.16
2023-02-19T22:23:09.812Z,97415.13
2023-02-19T22:25:36.653Z,97419.31
2023-02-19T22:28:04.977Z,97418.75
2023-02-19T22:30:31.825Z,97427.50
2023-02-19T22:32:58.638Z,97434.03
2023-02-19T22:35:25.578Z,97430.09
2023-02-19T22:37:52.860Z,97436.38
2023-02-19T22:40:19.634Z,97421.16
2023-02-19T22:42:46.410Z,97427.31
2023-02-19T22:45:14.398Z,97421.09
2023-02-19T22:47:41.986Z,97428.31
2023-02-19T22:50:15.986Z,97424.72
2023-02-19T22:52:42.733Z,97433.59
2023-02-19T22:55:09.553Z,97442.19
2023-02-19T22:57:36.346Z,97438.06
2023-02-19T23:00:08.489Z,97442.59
2023-02-19T23:02:35.249Z,97439.56
2023-02-19T23:05:02.103Z,97443.81
2023-02-19T23:07:28.876Z,97444.66
2023-02-19T23:09:55.697Z,97445.19
2023-02-19T23:12:23.185Z,97454.50
2023-02-19T23:14:50.016Z,97456.13
2023-02-19T23:17:16.819Z,97464.28
2023-02-19T23:19:43.665Z,97457.50
2023-02-19T23:22:10.528Z,97457.63
2023-02-19T23:24:37.334Z,97465.00
2023-02-19T23:27:04.116Z,97449.63
2023-02-19T23:29:31.004Z,97456.56
2023-02-19T23:32:00.243Z,97457.78
2023-02-19T23:34:27.102Z,97459.47
2023-02-19T23:36:55.356Z,97461.59
2023-02-19T23:39:22.780Z,97462.13
2023-02-19T23:41:55.382Z,97476.59
2023-02-19T23:44:24.513Z,97470.09
2023-02-19T23:46:52.295Z,97463.38
2023-02-19T23:49:19.455Z,97469.16
2023-02-19T23:51:46.434Z,97465.34
2023-02-19T23:54:13.473Z,97469.34
2023-02-19T23:56:40.349Z,97466.38
2023-02-19T23:59:07.155Z,97467.81
